Terminal Aerodrome Forecast
Issued by NWS Charleston, WV

Current Version | Previous Version | Graphics & Text | Print | Product List | Glossary On
Versions: 1 2 3 4 5 6 7 8 9 10 11 12 13 14 15 16 17 18 19 20 21 22 23 24 25
000
FTUS41 KRLX 211400 AAA
TAFCRW
TAF AMD
KCRW 211449Z 2115/2212 23006KT P6SM BKN060 BKN100
     FM211600 22007KT 6SM -SHRA SCT012 BKN020
     FM211700 22004KT P6SM VCTS SCT015 BKN040CB
     FM212200 00000KT 6SM TSRA BR BKN040CB
     FM220200 00000KT 6SM BR VCTS BKN040CB
     FM220500 00000KT 5SM BR BKN040
     FM221100 00000KT 2SM BR BKN070=

USA.gov is the U.S. government's official web portal to all federal, state and local government web resources and services.